PWSweather.com
Personal Weather Stations
Station Observations

SkegnessGB

Lat: 53.147585, Lon: 0.345774

Elevation: 18

Station Type: Fine Offset WH3080

http://www.skegnessweather.info/

High Low Average
Temperature 52.7°F11.5°C 41.2°F5.1°C 46.0°F7.8°C
Dew Point 47.7°F8.7°C 39.9°F4.4°C 43.4°F6.3°C
Winds 11.6 mph 18.7 kmh Calm Calm 4.0 mph S6.4 kmh S
Wind Gusts 13.3 mph21.4 kmh 0.7 mph1.1 kmh 6.0 mph9.7 kmh
Humidity 97% 76% 91%
Pressure 29.97 in1014.9 mb 29.70 in1005.8 mb -
Precipitation 0.05 in1.3 mm - -
Hour Temp Dew Point Humidity Winds Wind Gusts Pressure Precip Precip Rate Daily Precip Total
12:00 AM 42.3°F5.7°C 40.7°F4.8°C 94% 0.5 mph SSW0.8 kmh SSW 1.7 mph2.7 kmh 29.97 in1014.9 mb 0.00 in0.0 mm 0.00 in0.0 mm 0.00 in0.0 mm
12:10 AM 42.3°F5.7°C 40.7°F4.8°C 94% 0.5 mph N0.8 kmh N 2.5 mph4.0 kmh 29.97 in1014.9 mb 0.00 in0.0 mm 0.00 in0.0 mm 0.00 in0.0 mm
12:20 AM 42.3°F5.7°C 40.7°F4.8°C 94% 0.5 mph WNW0.8 kmh WNW 1.7 mph2.7 kmh 29.96 in1014.6 mb 0.00 in0.0 mm 0.00 in0.0 mm 0.00 in0.0 mm
12:30 AM 42.3°F5.7°C 40.7°F4.8°C 94% 0.5 mph WSW0.8 kmh WSW 1.7 mph2.7 kmh 29.96 in1014.6 mb 0.00 in0.0 mm 0.00 in0.0 mm 0.00 in0.0 mm
12:40 AM 42.3°F5.7°C 40.7°F4.8°C 94% 0.5 mph SSW0.8 kmh SSW 1.7 mph2.7 kmh 29.95 in1014.2 mb 0.00 in0.0 mm 0.00 in0.0 mm 0.00 in0.0 mm
12:50 AM 42.1°F5.6°C 40.8°F4.9°C 95% Calm Calm 1.7 mph2.7 kmh 29.95 in1014.2 mb 0.00 in0.0 mm 0.00 in0.0 mm 0.00 in0.0 mm
01:00 AM 42.1°F5.6°C 40.8°F4.9°C 95% 0.4 mph NW0.6 kmh NW 2.5 mph4.0 kmh 29.95 in1014.2 mb 0.00 in0.0 mm 0.00 in0.0 mm 0.00 in0.0 mm
01:10 AM 42.3°F5.7°C 40.9°F4.9°C 95% 0.6 mph NW1.0 kmh NW 3.4 mph5.5 kmh 29.94 in1013.9 mb 0.00 in0.0 mm 0.00 in0.0 mm 0.00 in0.0 mm
01:20 AM 42.3°F5.7°C 40.9°F4.9°C 95% 0.1 mph N0.2 kmh N 1.7 mph2.7 kmh 29.94 in1013.9 mb 0.00 in0.0 mm 0.00 in0.0 mm 0.00 in0.0 mm
01:30 AM 42.3°F5.7°C 40.9°F4.9°C 95% 0.6 mph N1.0 kmh N 2.5 mph4.0 kmh 29.94 in1013.9 mb 0.00 in0.0 mm 0.00 in0.0 mm 0.00 in0.0 mm
01:40 AM 42.3°F5.7°C 40.9°F4.9°C 95% 0.7 mph NW1.1 kmh NW 2.5 mph4.0 kmh 29.94 in1013.9 mb 0.00 in0.0 mm 0.00 in0.0 mm 0.00 in0.0 mm
01:50 AM 42.4°F5.8°C 41.1°F5.1°C 95% 1.0 mph NNW1.6 kmh NNW 3.4 mph5.5 kmh 29.93 in1013.5 mb 0.00 in0.0 mm 0.00 in0.0 mm 0.00 in0.0 mm
02:00 AM 42.3°F5.7°C 40.9°F4.9°C 95% 0.5 mph ESE0.8 kmh ESE 1.7 mph2.7 kmh 29.93 in1013.5 mb 0.00 in0.0 mm 0.00 in0.0 mm 0.00 in0.0 mm
02:10 AM 42.1°F5.6°C 40.8°F4.9°C 95% Calm Calm 0.7 mph1.1 kmh 29.93 in1013.5 mb 0.00 in0.0 mm 0.00 in0.0 mm 0.00 in0.0 mm
02:20 AM 42.1°F5.6°C 40.8°F4.9°C 95% 0.5 mph W0.8 kmh W 2.5 mph4.0 kmh 29.93 in1013.5 mb 0.00 in0.0 mm 0.00 in0.0 mm 0.00 in0.0 mm
02:30 AM 42.1°F5.6°C 40.8°F4.9°C 95% 0.4 mph NW0.6 kmh NW 1.7 mph2.7 kmh 29.92 in1013.2 mb 0.00 in0.0 mm 0.00 in0.0 mm 0.00 in0.0 mm
02:40 AM 41.9°F5.5°C 40.6°F4.8°C 95% 0.2 mph NNW0.3 kmh NNW 1.7 mph2.7 kmh 29.92 in1013.2 mb 0.00 in0.0 mm 0.00 in0.0 mm 0.00 in0.0 mm
02:50 AM 42.1°F5.6°C 40.8°F4.9°C 95% 0.3 mph SE0.5 kmh SE 1.7 mph2.7 kmh 29.92 in1013.2 mb 0.00 in0.0 mm 0.00 in0.0 mm 0.00 in0.0 mm
03:00 AM 41.9°F5.5°C 40.8°F4.9°C 96% 0.8 mph N1.3 kmh N 3.4 mph5.5 kmh 29.92 in1013.2 mb 0.00 in0.0 mm 0.00 in0.0 mm 0.00 in0.0 mm
03:10 AM 41.9°F5.5°C 40.8°F4.9°C 96% Calm Calm 0.7 mph1.1 kmh 29.91 in1012.9 mb 0.00 in0.0 mm 0.00 in0.0 mm 0.00 in0.0 mm
03:20 AM 41.5°F5.3°C 40.2°F4.6°C 95% Calm Calm 0.7 mph1.1 kmh 29.91 in1012.9 mb 0.00 in0.0 mm 0.00 in0.0 mm 0.00 in0.0 mm
03:30 AM 41.4°F5.2°C 40.0°F4.4°C 95% 0.5 mph N0.8 kmh N 1.7 mph2.7 kmh 29.90 in1012.5 mb 0.00 in0.0 mm 0.00 in0.0 mm 0.00 in0.0 mm
03:40 AM 41.2°F5.1°C 39.9°F4.4°C 95% 0.2 mph N0.3 kmh N 1.7 mph2.7 kmh 29.90 in1012.5 mb 0.00 in0.0 mm 0.00 in0.0 mm 0.00 in0.0 mm
03:50 AM 41.2°F5.1°C 40.1°F4.5°C 96% Calm Calm 0.7 mph1.1 kmh 29.90 in1012.5 mb 0.00 in0.0 mm 0.00 in0.0 mm 0.00 in0.0 mm
04:00 AM 41.4°F5.2°C 40.3°F4.6°C 96% Calm Calm 0.7 mph1.1 kmh 29.89 in1012.2 mb 0.00 in0.0 mm 0.00 in0.0 mm 0.00 in0.0 mm
04:10 AM 41.5°F5.3°C 40.5°F4.7°C 96% 0.2 mph NW0.3 kmh NW 2.5 mph4.0 kmh 29.89 in1012.2 mb 0.00 in0.0 mm 0.00 in0.0 mm 0.00 in0.0 mm
04:20 AM 41.7°F5.4°C 40.7°F4.8°C 96% 0.5 mph W0.8 kmh W 3.4 mph5.5 kmh 29.89 in1012.2 mb 0.00 in0.0 mm 0.00 in0.0 mm 0.00 in0.0 mm
04:30 AM 41.7°F5.4°C 40.7°F4.8°C 96% 0.6 mph WNW1.0 kmh WNW 3.4 mph5.5 kmh 29.89 in1012.2 mb 0.00 in0.0 mm 0.00 in0.0 mm 0.00 in0.0 mm
04:40 AM 41.7°F5.4°C 40.7°F4.8°C 96% 0.5 mph NW0.8 kmh NW 2.5 mph4.0 kmh 29.89 in1012.2 mb 0.00 in0.0 mm 0.00 in0.0 mm 0.00 in0.0 mm
04:50 AM 41.9°F5.5°C 40.8°F4.9°C 96% 1.2 mph N1.9 kmh N 2.5 mph4.0 kmh 29.89 in1012.2 mb 0.00 in0.0 mm 0.00 in0.0 mm 0.00 in0.0 mm
05:00 AM 41.9°F5.5°C 40.8°F4.9°C 96% 1.6 mph NNW2.6 kmh NNW 2.5 mph4.0 kmh 29.88 in1011.9 mb 0.00 in0.0 mm 0.00 in0.0 mm 0.00 in0.0 mm
05:10 AM 41.7°F5.4°C 40.7°F4.8°C 96% 0.9 mph N1.4 kmh N 2.5 mph4.0 kmh 29.88 in1011.9 mb 0.00 in0.0 mm 0.00 in0.0 mm 0.00 in0.0 mm
05:20 AM 41.7°F5.4°C 40.7°F4.8°C 96% 0.8 mph WNW1.3 kmh WNW 1.7 mph2.7 kmh 29.88 in1011.9 mb 0.00 in0.0 mm 0.00 in0.0 mm 0.00 in0.0 mm
05:30 AM 41.7°F5.4°C 40.7°F4.8°C 96% 1.3 mph SW2.1 kmh SW 2.5 mph4.0 kmh 29.89 in1012.2 mb 0.00 in0.0 mm 0.00 in0.0 mm 0.00 in0.0 mm
05:40 AM 41.2°F5.1°C 40.1°F4.5°C 96% Calm Calm 0.7 mph1.1 kmh 29.89 in1012.2 mb 0.00 in0.0 mm 0.00 in0.0 mm 0.00 in0.0 mm
05:50 AM 42.1°F5.6°C 41.0°F5.0°C 96% 0.5 mph SW0.8 kmh SW 2.5 mph4.0 kmh 29.89 in1012.2 mb 0.00 in0.0 mm 0.00 in0.0 mm 0.00 in0.0 mm
06:00 AM 42.6°F5.9°C 41.8°F5.4°C 97% 1.4 mph S2.3 kmh S 3.4 mph5.5 kmh 29.88 in1011.9 mb 0.00 in0.0 mm 0.00 in0.0 mm 0.00 in0.0 mm
06:10 AM 42.8°F6.0°C 40.6°F4.8°C 92% 2.1 mph S3.4 kmh S 3.4 mph5.5 kmh 29.88 in1011.9 mb 0.00 in0.0 mm 0.00 in0.0 mm 0.00 in0.0 mm
06:20 AM 43.0°F6.1°C 40.8°F4.9°C 92% 2.0 mph S3.2 kmh S 3.4 mph5.5 kmh 29.88 in1011.9 mb 0.00 in0.0 mm 0.00 in0.0 mm 0.00 in0.0 mm
06:30 AM 43.2°F6.2°C 41.0°F5.0°C 92% 1.1 mph NNE1.8 kmh NNE 2.5 mph4.0 kmh 29.87 in1011.5 mb 0.00 in0.0 mm 0.00 in0.0 mm 0.00 in0.0 mm
06:40 AM 43.5°F6.4°C 41.4°F5.2°C 92% 1.5 mph NW2.4 kmh NW 3.4 mph5.5 kmh 29.86 in1011.2 mb 0.00 in0.0 mm 0.00 in0.0 mm 0.00 in0.0 mm
06:50 AM 43.9°F6.6°C 41.7°F5.4°C 92% 2.3 mph NNW3.7 kmh NNW 4.2 mph6.8 kmh 29.86 in1011.2 mb 0.00 in0.0 mm 0.00 in0.0 mm 0.00 in0.0 mm
07:00 AM 44.6°F7.0°C 42.4°F5.8°C 92% 2.2 mph WSW3.5 kmh WSW 4.2 mph6.8 kmh 29.86 in1011.2 mb 0.00 in0.0 mm 0.00 in0.0 mm 0.00 in0.0 mm
07:10 AM 44.8°F7.1°C 42.6°F5.9°C 92% 2.2 mph NW3.5 kmh NW 3.4 mph5.5 kmh 29.85 in1010.8 mb 0.00 in0.0 mm 0.00 in0.0 mm 0.00 in0.0 mm
07:20 AM 44.8°F7.1°C 42.6°F5.9°C 92% 2.5 mph N4.0 kmh N 3.4 mph5.5 kmh 29.85 in1010.8 mb 0.00 in0.0 mm 0.00 in0.0 mm 0.00 in0.0 mm
07:30 AM 45.0°F7.2°C 42.5°F5.8°C 91% 2.6 mph N4.2 kmh N 4.2 mph6.8 kmh 29.85 in1010.8 mb 0.00 in0.0 mm 0.00 in0.0 mm 0.00 in0.0 mm
07:40 AM 45.3°F7.4°C 42.8°F6.0°C 91% 3.2 mph W5.1 kmh W 5.9 mph9.5 kmh 29.85 in1010.8 mb 0.00 in0.0 mm 0.00 in0.0 mm 0.00 in0.0 mm
07:50 AM 45.7°F7.6°C 42.9°F6.1°C 90% 2.9 mph NNE4.7 kmh NNE 5.9 mph9.5 kmh 29.85 in1010.8 mb 0.00 in0.0 mm 0.00 in0.0 mm 0.00 in0.0 mm
08:00 AM 46.0°F7.8°C 43.0°F6.1°C 89% 3.6 mph N5.8 kmh N 6.6 mph10.6 kmh 29.84 in1010.5 mb 0.00 in0.0 mm 0.00 in0.0 mm 0.00 in0.0 mm
08:10 AM 46.6°F8.1°C 43.2°F6.2°C 88% 2.7 mph NW4.3 kmh NW 3.4 mph5.5 kmh 29.85 in1010.8 mb 0.00 in0.0 mm 0.00 in0.0 mm 0.00 in0.0 mm
08:20 AM 47.1°F8.4°C 43.4°F6.3°C 87% 2.9 mph WSW4.7 kmh WSW 4.2 mph6.8 kmh 29.85 in1010.8 mb 0.00 in0.0 mm 0.00 in0.0 mm 0.00 in0.0 mm
08:30 AM 47.1°F8.4°C 43.1°F6.2°C 86% 2.9 mph SSW4.7 kmh SSW 5.9 mph9.5 kmh 29.85 in1010.8 mb 0.00 in0.0 mm 0.00 in0.0 mm 0.00 in0.0 mm
08:40 AM 47.7°F8.7°C 43.7°F6.5°C 86% 3.1 mph N5.0 kmh N 4.9 mph7.9 kmh 29.84 in1010.5 mb 0.00 in0.0 mm 0.00 in0.0 mm 0.00 in0.0 mm
08:50 AM 48.2°F9.0°C 44.2°F6.8°C 86% 2.6 mph NW4.2 kmh NW 4.2 mph6.8 kmh 29.84 in1010.5 mb 0.00 in0.0 mm 0.00 in0.0 mm 0.00 in0.0 mm
09:00 AM 48.2°F9.0°C 43.9°F6.6°C 85% 3.8 mph N6.1 kmh N 4.9 mph7.9 kmh 29.84 in1010.5 mb 0.00 in0.0 mm 0.00 in0.0 mm 0.00 in0.0 mm
09:10 AM 48.7°F9.3°C 44.4°F6.9°C 85% 3.5 mph N5.6 kmh N 4.9 mph7.9 kmh 29.84 in1010.5 mb 0.00 in0.0 mm 0.00 in0.0 mm 0.00 in0.0 mm
09:20 AM 48.0°F8.9°C 43.4°F6.3°C 84% 2.8 mph N4.5 kmh N 4.2 mph6.8 kmh 29.83 in1010.2 mb 0.00 in0.0 mm 0.00 in0.0 mm 0.00 in0.0 mm
09:30 AM 46.6°F8.1°C 42.0°F5.6°C 84% 4.1 mph N6.6 kmh N 6.6 mph10.6 kmh 29.83 in1010.2 mb 0.00 in0.0 mm 0.00 in0.0 mm 0.00 in0.0 mm
09:40 AM 46.2°F7.9°C 42.0°F5.6°C 85% 2.5 mph WNW4.0 kmh WNW 4.2 mph6.8 kmh 29.83 in1010.2 mb 0.00 in0.0 mm 0.00 in0.0 mm 0.00 in0.0 mm
09:50 AM 45.5°F7.5°C 41.6°F5.3°C 86% 4.4 mph N7.1 kmh N 5.9 mph9.5 kmh 29.83 in1010.2 mb 0.00 in0.0 mm 0.00 in0.0 mm 0.00 in0.0 mm
10:00 AM 46.8°F8.2°C 43.4°F6.3°C 88% 3.3 mph NNE5.3 kmh NNE 5.9 mph9.5 kmh 29.83 in1010.2 mb 0.00 in0.0 mm 0.00 in0.0 mm 0.00 in0.0 mm
10:10 AM 47.1°F8.4°C 43.4°F6.3°C 87% 3.1 mph SW5.0 kmh SW 4.2 mph6.8 kmh 29.83 in1010.2 mb 0.00 in0.0 mm 0.00 in0.0 mm 0.00 in0.0 mm
10:20 AM 47.3°F8.5°C 43.3°F6.3°C 86% 3.3 mph NNW5.3 kmh NNW 4.9 mph7.9 kmh 29.83 in1010.2 mb 0.00 in0.0 mm 0.00 in0.0 mm 0.00 in0.0 mm
10:30 AM 47.3°F8.5°C 43.3°F6.3°C 86% 2.5 mph NNW4.0 kmh NNW 4.9 mph7.9 kmh 29.83 in1010.2 mb 0.00 in0.0 mm 0.00 in0.0 mm 0.00 in0.0 mm
10:40 AM 47.1°F8.4°C 43.1°F6.2°C 86% 2.8 mph NNW4.5 kmh NNW 4.2 mph6.8 kmh 29.82 in1009.8 mb 0.00 in0.0 mm 0.00 in0.0 mm 0.00 in0.0 mm
10:50 AM 49.1°F9.5°C 45.7°F7.6°C 88% 3.0 mph NW4.8 kmh NW 4.2 mph6.8 kmh 29.82 in1009.8 mb 0.00 in0.0 mm 0.00 in0.0 mm 0.00 in0.0 mm
11:00 AM 52.7°F11.5°C 47.7°F8.7°C 83% 3.4 mph NW5.5 kmh NW 4.2 mph6.8 kmh 29.81 in1009.5 mb 0.00 in0.0 mm 0.00 in0.0 mm 0.00 in0.0 mm
11:10 AM 52.5°F11.4°C 45.9°F7.7°C 78% 5.3 mph N8.5 kmh N 6.6 mph10.6 kmh 29.81 in1009.5 mb 0.00 in0.0 mm 0.00 in0.0 mm 0.00 in0.0 mm
11:20 AM 52.7°F11.5°C 45.3°F7.4°C 76% 3.8 mph E6.1 kmh E 6.6 mph10.6 kmh 29.81 in1009.5 mb 0.00 in0.0 mm 0.00 in0.0 mm 0.00 in0.0 mm
11:30 AM 52.0°F11.1°C 44.6°F7.0°C 76% 5.4 mph N8.7 kmh N 7.6 mph12.2 kmh 29.80 in1009.1 mb 0.00 in0.0 mm 0.00 in0.0 mm 0.00 in0.0 mm
11:40 AM 51.4°F10.8°C 46.1°F7.8°C 82% 5.1 mph N8.2 kmh N 5.9 mph9.5 kmh 29.80 in1009.1 mb 0.00 in0.0 mm 0.00 in0.0 mm 0.00 in0.0 mm
11:50 AM 50.0°F10.0°C 44.7°F7.1°C 82% 6.1 mph NNE9.8 kmh NNE 8.4 mph13.5 kmh 29.80 in1009.1 mb 0.00 in0.0 mm 0.00 in0.0 mm 0.00 in0.0 mm
12:00 PM 49.3°F9.6°C 44.3°F6.8°C 83% 4.7 mph NNW7.6 kmh NNW 5.9 mph9.5 kmh 29.80 in1009.1 mb 0.00 in0.0 mm 0.00 in0.0 mm 0.00 in0.0 mm
12:10 PM 49.3°F9.6°C 45.0°F7.2°C 85% 3.9 mph W6.3 kmh W 4.2 mph6.8 kmh 29.79 in1008.8 mb 0.00 in0.0 mm 0.00 in0.0 mm 0.00 in0.0 mm
12:20 PM 48.7°F9.3°C 44.1°F6.7°C 84% 3.4 mph N5.5 kmh N 8.4 mph13.5 kmh 29.80 in1009.1 mb 0.00 in0.0 mm 0.00 in0.0 mm 0.00 in0.0 mm
12:30 PM 48.6°F9.2°C 43.9°F6.6°C 84% 6.5 mph N10.5 kmh N 8.4 mph13.5 kmh 29.80 in1009.1 mb 0.00 in0.0 mm 0.00 in0.0 mm 0.00 in0.0 mm
12:40 PM 48.9°F9.4°C 44.3°F6.8°C 84% 6.2 mph N10.0 kmh N 9.1 mph14.6 kmh 29.79 in1008.8 mb 0.00 in0.0 mm 0.00 in0.0 mm 0.00 in0.0 mm
12:50 PM 49.6°F9.8°C 44.7°F7.1°C 83% 5.2 mph N8.4 kmh N 6.6 mph10.6 kmh 29.79 in1008.8 mb 0.00 in0.0 mm 0.00 in0.0 mm 0.00 in0.0 mm
01:00 PM 48.7°F9.3°C 43.8°F6.6°C 83% 5.2 mph NNW8.4 kmh NNW 7.6 mph12.2 kmh 29.79 in1008.8 mb 0.00 in0.0 mm 0.00 in0.0 mm 0.00 in0.0 mm
01:10 PM 48.0°F8.9°C 43.4°F6.3°C 84% 5.6 mph N9.0 kmh N 8.4 mph13.5 kmh 29.78 in1008.5 mb 0.00 in0.0 mm 0.00 in0.0 mm 0.00 in0.0 mm
01:20 PM 50.0°F10.0°C 45.0°F7.2°C 83% 6.2 mph N10.0 kmh N 7.6 mph12.2 kmh 29.78 in1008.5 mb 0.00 in0.0 mm 0.00 in0.0 mm 0.00 in0.0 mm
01:30 PM 50.5°F10.3°C 45.6°F7.6°C 83% 5.7 mph NNE9.2 kmh NNE 7.6 mph12.2 kmh 29.78 in1008.5 mb 0.00 in0.0 mm 0.00 in0.0 mm 0.00 in0.0 mm
01:40 PM 49.8°F9.9°C 44.9°F7.2°C 83% 5.5 mph NNE8.9 kmh NNE 7.6 mph12.2 kmh 29.76 in1007.8 mb 0.00 in0.0 mm 0.00 in0.0 mm 0.00 in0.0 mm
01:50 PM 50.7°F10.4°C 45.7°F7.6°C 83% 5.0 mph NE8.0 kmh NE 7.6 mph12.2 kmh 29.77 in1008.1 mb 0.00 in0.0 mm 0.00 in0.0 mm 0.00 in0.0 mm
02:00 PM 51.1°F10.6°C 45.8°F7.7°C 82% 4.3 mph NW6.9 kmh NW 6.6 mph10.6 kmh 29.76 in1007.8 mb 0.00 in0.0 mm 0.00 in0.0 mm 0.00 in0.0 mm
02:10 PM 50.2°F10.1°C 45.2°F7.3°C 83% 6.8 mph NE10.9 kmh NE 6.6 mph10.6 kmh 29.76 in1007.8 mb 0.00 in0.0 mm 0.00 in0.0 mm 0.00 in0.0 mm
02:20 PM 49.6°F9.8°C 44.7°F7.1°C 83% 5.2 mph N8.4 kmh N 6.6 mph10.6 kmh 29.75 in1007.5 mb 0.00 in0.0 mm 0.00 in0.0 mm 0.00 in0.0 mm
02:30 PM 49.3°F9.6°C 44.6°F7.0°C 84% 4.7 mph N7.6 kmh N 6.6 mph10.6 kmh 29.75 in1007.5 mb 0.00 in0.0 mm 0.00 in0.0 mm 0.00 in0.0 mm
02:40 PM 49.5°F9.7°C 44.8°F7.1°C 84% 3.0 mph N4.8 kmh N 4.9 mph7.9 kmh 29.75 in1007.5 mb 0.00 in0.0 mm 0.00 in0.0 mm 0.00 in0.0 mm
02:50 PM 48.6°F9.2°C 43.9°F6.6°C 84% 3.6 mph NNE5.8 kmh NNE 6.6 mph10.6 kmh 29.75 in1007.5 mb 0.00 in0.0 mm 0.00 in0.0 mm 0.00 in0.0 mm
03:00 PM 47.8°F8.8°C 43.5°F6.4°C 85% 3.8 mph NNE6.1 kmh NNE 4.9 mph7.9 kmh 29.74 in1007.1 mb 0.00 in0.0 mm 0.00 in0.0 mm 0.00 in0.0 mm
03:10 PM 47.1°F8.4°C 42.8°F6.0°C 85% 5.6 mph N9.0 kmh N 7.6 mph12.2 kmh 29.74 in1007.1 mb 0.00 in0.0 mm 0.00 in0.0 mm 0.00 in0.0 mm
03:20 PM 46.6°F8.1°C 42.9°F6.1°C 87% 5.5 mph N8.9 kmh N 7.6 mph12.2 kmh 29.73 in1006.8 mb 0.00 in0.0 mm 0.00 in0.0 mm 0.00 in0.0 mm
03:30 PM 46.8°F8.2°C 43.4°F6.3°C 88% 4.2 mph NNE6.8 kmh NNE 5.9 mph9.5 kmh 29.73 in1006.8 mb 0.00 in0.0 mm 0.00 in0.0 mm 0.00 in0.0 mm
03:40 PM 46.4°F8.0°C 43.0°F6.1°C 88% 4.3 mph NNW6.9 kmh NNW 5.9 mph9.5 kmh 29.73 in1006.8 mb 0.00 in0.0 mm 0.00 in0.0 mm 0.00 in0.0 mm
03:50 PM 46.4°F8.0°C 43.0°F6.1°C 88% 4.5 mph N7.2 kmh N 5.9 mph9.5 kmh 29.73 in1006.8 mb 0.00 in0.0 mm 0.00 in0.0 mm 0.00 in0.0 mm
04:00 PM 46.4°F8.0°C 43.3°F6.3°C 89% 3.3 mph N5.3 kmh N 4.9 mph7.9 kmh 29.72 in1006.4 mb 0.00 in0.0 mm 0.00 in0.0 mm 0.00 in0.0 mm
04:10 PM 46.4°F8.0°C 43.3°F6.3°C 89% 5.2 mph N8.4 kmh N 4.9 mph7.9 kmh 29.73 in1006.8 mb 0.00 in0.0 mm 0.00 in0.0 mm 0.00 in0.0 mm
04:20 PM 46.6°F8.1°C 43.8°F6.6°C 90% 3.0 mph N4.8 kmh N 4.2 mph6.8 kmh 29.72 in1006.4 mb 0.00 in0.0 mm 0.00 in0.0 mm 0.00 in0.0 mm
04:30 PM 46.6°F8.1°C 43.8°F6.6°C 90% 2.9 mph NNW4.7 kmh NNW 4.9 mph7.9 kmh 29.72 in1006.4 mb 0.00 in0.0 mm 0.00 in0.0 mm 0.00 in0.0 mm
04:40 PM 46.8°F8.2°C 44.0°F6.7°C 90% 2.8 mph NNE4.5 kmh NNE 5.9 mph9.5 kmh 29.72 in1006.4 mb 0.00 in0.0 mm 0.00 in0.0 mm 0.00 in0.0 mm
04:50 PM 46.6°F8.1°C 43.8°F6.6°C 90% 2.8 mph NNW4.5 kmh NNW 4.9 mph7.9 kmh 29.72 in1006.4 mb 0.00 in0.0 mm 0.00 in0.0 mm 0.00 in0.0 mm
05:00 PM 46.6°F8.1°C 43.8°F6.6°C 90% 2.8 mph N4.5 kmh N 4.9 mph7.9 kmh 29.71 in1006.1 mb 0.00 in0.0 mm 0.00 in0.0 mm 0.00 in0.0 mm
05:10 PM 46.6°F8.1°C 43.8°F6.6°C 90% 3.0 mph N4.8 kmh N 4.2 mph6.8 kmh 29.71 in1006.1 mb 0.00 in0.0 mm 0.00 in0.0 mm 0.00 in0.0 mm
05:20 PM 46.6°F8.1°C 44.1°F6.7°C 91% 3.4 mph N5.5 kmh N 4.2 mph6.8 kmh 29.70 in1005.8 mb 0.00 in0.0 mm 0.00 in0.0 mm 0.00 in0.0 mm
05:30 PM 47.1°F8.4°C 44.9°F7.2°C 92% 2.7 mph N4.3 kmh N 4.2 mph6.8 kmh 29.70 in1005.8 mb 0.00 in0.0 mm 0.00 in0.0 mm 0.00 in0.0 mm
05:40 PM 47.3°F8.5°C 45.1°F7.3°C 92% 2.4 mph W3.9 kmh W 3.4 mph5.5 kmh 29.70 in1005.8 mb 0.00 in0.0 mm 0.00 in0.0 mm 0.00 in0.0 mm
05:50 PM 47.3°F8.5°C 45.1°F7.3°C 92% 2.8 mph W4.5 kmh W 4.2 mph6.8 kmh 29.70 in1005.8 mb 0.00 in0.0 mm 0.00 in0.0 mm 0.00 in0.0 mm
06:00 PM 47.3°F8.5°C 45.1°F7.3°C 92% 3.5 mph WSW5.6 kmh WSW 8.4 mph13.5 kmh 29.70 in1005.8 mb 0.00 in0.0 mm 0.00 in0.0 mm 0.00 in0.0 mm
06:10 PM 47.7°F8.7°C 45.5°F7.5°C 92% 1.3 mph W2.1 kmh W 3.4 mph5.5 kmh 29.70 in1005.8 mb 0.00 in0.0 mm 0.00 in0.0 mm 0.00 in0.0 mm
06:20 PM 47.8°F8.8°C 45.6°F7.6°C 92% 2.7 mph SE4.3 kmh SE 4.9 mph7.9 kmh 29.70 in1005.8 mb 0.00 in0.0 mm 0.00 in0.0 mm 0.00 in0.0 mm
06:30 PM 48.2°F9.0°C 46.0°F7.8°C 92% 3.6 mph NNE5.8 kmh NNE 9.1 mph14.6 kmh 29.70 in1005.8 mb 0.00 in0.0 mm 0.00 in0.0 mm 0.00 in0.0 mm
06:40 PM 48.6°F9.2°C 46.3°F7.9°C 92% 3.4 mph SSE5.5 kmh SSE 8.4 mph13.5 kmh 29.70 in1005.8 mb 0.00 in0.0 mm 0.00 in0.0 mm 0.00 in0.0 mm
06:50 PM 48.6°F9.2°C 46.1°F7.8°C 91% 4.9 mph W7.9 kmh W 8.4 mph13.5 kmh 29.70 in1005.8 mb 0.00 in0.0 mm 0.00 in0.0 mm 0.00 in0.0 mm
07:00 PM 48.7°F9.3°C 46.5°F8.1°C 92% 9.3 mph S15.0 kmh S 11.8 mph19.0 kmh 29.71 in1006.1 mb 0.04 in1.0 mm 0.05 in1.3 mm 0.04 in1.0 mm
07:10 PM 48.7°F9.3°C 47.1°F8.4°C 94% 10.4 mph S16.7 kmh S 10.1 mph16.3 kmh 29.71 in1006.1 mb 0.05 in1.3 mm 0.06 in1.5 mm 0.05 in1.3 mm
07:20 PM 48.7°F9.3°C 47.4°F8.6°C 95% 9.4 mph SE15.1 kmh SE 9.1 mph14.6 kmh 29.71 in1006.1 mb 0.05 in1.3 mm 0.00 in0.0 mm 0.05 in1.3 mm
07:30 PM 48.6°F9.2°C 47.2°F8.4°C 95% 8.6 mph S13.8 kmh S 10.1 mph16.3 kmh 29.71 in1006.1 mb 0.05 in1.3 mm 0.00 in0.0 mm 0.05 in1.3 mm
07:40 PM 48.4°F9.1°C 47.3°F8.5°C 96% 7.8 mph SE12.6 kmh SE 9.1 mph14.6 kmh 29.71 in1006.1 mb 0.05 in1.3 mm 0.00 in0.0 mm 0.05 in1.3 mm
07:50 PM 48.2°F9.0°C 47.1°F8.4°C 96% 6.1 mph S9.8 kmh S 5.9 mph9.5 kmh 29.71 in1006.1 mb 0.05 in1.3 mm 0.00 in0.0 mm 0.05 in1.3 mm
08:00 PM 47.8°F8.8°C 46.5°F8.1°C 95% 6.1 mph SE9.8 kmh SE 7.6 mph12.2 kmh 29.72 in1006.4 mb 0.00 in0.0 mm 0.00 in0.0 mm 0.05 in1.3 mm
08:10 PM 47.5°F8.6°C 46.1°F7.8°C 95% 9.0 mph SE14.5 kmh SE 7.6 mph12.2 kmh 29.72 in1006.4 mb 0.00 in0.0 mm 0.00 in0.0 mm 0.05 in1.3 mm
08:20 PM 47.3°F8.5°C 45.9°F7.7°C 95% 9.0 mph S14.5 kmh S 9.1 mph14.6 kmh 29.71 in1006.1 mb 0.00 in0.0 mm 0.00 in0.0 mm 0.05 in1.3 mm
08:30 PM 47.1°F8.4°C 45.8°F7.7°C 95% 8.8 mph S14.2 kmh S 9.1 mph14.6 kmh 29.72 in1006.4 mb 0.00 in0.0 mm 0.00 in0.0 mm 0.05 in1.3 mm
08:40 PM 46.8°F8.2°C 45.1°F7.3°C 94% 9.0 mph S14.5 kmh S 9.1 mph14.6 kmh 29.71 in1006.1 mb 0.00 in0.0 mm 0.00 in0.0 mm 0.05 in1.3 mm
08:50 PM 46.8°F8.2°C 45.1°F7.3°C 94% 7.9 mph SSE12.7 kmh SSE 8.4 mph13.5 kmh 29.71 in1006.1 mb 0.00 in0.0 mm 0.00 in0.0 mm 0.05 in1.3 mm
09:00 PM 46.9°F8.3°C 45.3°F7.4°C 94% 8.0 mph S12.9 kmh S 8.4 mph13.5 kmh 29.71 in1006.1 mb 0.00 in0.0 mm 0.00 in0.0 mm 0.05 in1.3 mm
09:10 PM 46.9°F8.3°C 45.3°F7.4°C 94% 9.6 mph SSE15.4 kmh SSE 8.4 mph13.5 kmh 29.71 in1006.1 mb 0.00 in0.0 mm 0.00 in0.0 mm 0.05 in1.3 mm
09:20 PM 46.8°F8.2°C 45.1°F7.3°C 94% 8.9 mph S14.3 kmh S 10.1 mph16.3 kmh 29.70 in1005.8 mb 0.00 in0.0 mm 0.00 in0.0 mm 0.05 in1.3 mm
09:30 PM 46.8°F8.2°C 45.1°F7.3°C 94% 9.5 mph SSW15.3 kmh SSW 10.1 mph16.3 kmh 29.71 in1006.1 mb 0.00 in0.0 mm 0.00 in0.0 mm 0.05 in1.3 mm
09:40 PM 46.8°F8.2°C 45.1°F7.3°C 94% 9.5 mph SSE15.3 kmh SSE 10.8 mph17.4 kmh 29.71 in1006.1 mb 0.00 in0.0 mm 0.00 in0.0 mm 0.05 in1.3 mm
09:50 PM 46.4°F8.0°C 44.8°F7.1°C 94% 10.6 mph S17.1 kmh S 12.5 mph20.1 kmh 29.71 in1006.1 mb 0.00 in0.0 mm 0.00 in0.0 mm 0.05 in1.3 mm
10:00 PM 46.4°F8.0°C 45.0°F7.2°C 95% 9.5 mph S15.3 kmh S 8.4 mph13.5 kmh 29.70 in1005.8 mb 0.00 in0.0 mm 0.00 in0.0 mm 0.05 in1.3 mm
10:10 PM 46.6°F8.1°C 45.2°F7.3°C 95% 10.4 mph E16.7 kmh E 9.1 mph14.6 kmh 29.70 in1005.8 mb 0.00 in0.0 mm 0.00 in0.0 mm 0.05 in1.3 mm
10:20 PM 46.4°F8.0°C 45.0°F7.2°C 95% 10.2 mph S16.4 kmh S 13.3 mph21.4 kmh 29.70 in1005.8 mb 0.00 in0.0 mm 0.00 in0.0 mm 0.05 in1.3 mm
10:30 PM 46.0°F7.8°C 44.4°F6.9°C 94% 10.8 mph S17.4 kmh S 10.1 mph16.3 kmh 29.70 in1005.8 mb 0.00 in0.0 mm 0.00 in0.0 mm 0.05 in1.3 mm
10:40 PM 46.0°F7.8°C 44.7°F7.1°C 95% 11.6 mph SSE18.7 kmh SSE 11.8 mph19.0 kmh 29.71 in1006.1 mb 0.00 in0.0 mm 0.00 in0.0 mm 0.05 in1.3 mm
10:50 PM 46.2°F7.9°C 44.9°F7.2°C 95% 10.1 mph S16.3 kmh S 11.8 mph19.0 kmh 29.71 in1006.1 mb 0.00 in0.0 mm 0.00 in0.0 mm 0.05 in1.3 mm
11:00 PM 46.2°F7.9°C 44.9°F7.2°C 95% 10.3 mph S16.6 kmh S 10.8 mph17.4 kmh 29.71 in1006.1 mb 0.00 in0.0 mm 0.00 in0.0 mm 0.05 in1.3 mm
11:10 PM 46.2°F7.9°C 44.9°F7.2°C 95% 10.0 mph SE16.1 kmh SE 9.1 mph14.6 kmh 29.71 in1006.1 mb 0.00 in0.0 mm 0.00 in0.0 mm 0.05 in1.3 mm
11:20 PM 46.0°F7.8°C 44.7°F7.1°C 95% 10.9 mph SW17.5 kmh SW 9.1 mph14.6 kmh 29.71 in1006.1 mb 0.00 in0.0 mm 0.00 in0.0 mm 0.05 in1.3 mm
11:30 PM 46.0°F7.8°C 44.7°F7.1°C 95% 10.9 mph SW17.5 kmh SW 8.4 mph13.5 kmh 29.71 in1006.1 mb 0.00 in0.0 mm 0.00 in0.0 mm 0.05 in1.3 mm
11:40 PM 46.0°F7.8°C 44.7°F7.1°C 95% 10.9 mph SW17.5 kmh SW 8.4 mph13.5 kmh 29.71 in1006.1 mb 0.00 in0.0 mm 0.00 in0.0 mm 0.05 in1.3 mm
11:50 PM 45.3°F7.4°C 43.7°F6.5°C 94% 10.9 mph S17.5 kmh S 8.4 mph13.5 kmh 29.71 in1006.1 mb 0.00 in0.0 mm 0.00 in0.0 mm 0.05 in1.3 mm